Terminal Aerodrome Forecast
Issued by NWS Twin Cities, MN

Home | Current Version | Previous Version | Text Only | Print | Product List | Glossary Off
Versions: 1 2 3 4 5 6 7 8 9 10 11 12 13 14

164
FTUS43 KMPX 161720
TAFSTC
TAF
KSTC 161720Z 1618/1718 21012G21KT P6SM SKC
     FM162300 19008KT P6SM SKC
     FM170300 21006KT P6SM FEW250=

USA.gov is the U.S. government's official web portal to all federal, state and local government web resources and services.